Etusivu
METAR-TAF:

METAR-TAF

Lentoasemat :

Linköping, Ruotsi

Linköpingin lentoasema

Leveyspiiri: 58-24N, Pituuspiiri: 015-41E, korkeus merenpinnasta: 52 m

Tämänhetkinen sää

Tämä raportti tehtiin 20 minuuttia sitten, kello 06.20 UTC
Tuuli 4 kn lännestä, vaihdellen lounaan ja lännen/luoteen välillä
Lämpötila 13°C
Kosteus 77%
Ilmanpaine 1013 hPa
Näkyvyys 10 km tai enemmän
ei pilviä alle 1500 m:ssä eikä cumulonimbus-pilviä

METAR: ESSL 240620Z 26004KT 230V300 CAVOK 13/09 Q1013

Aika: 08:40 (06:40 UTC)

Sääennuste

Tämä raportti tehtiin 1 tunti ja 50 minuuttia sitten, kello 04.50 UTC
Ennuste voimassa 24. päivästä klo 05 UTC - 24. päivään klo 14 UTC
Tuuli 5 kn lännestä/lounaasta puuskistuen 12 kn:hen
Näkyvyys 10 km tai enemmän
ei pilviä alle 1500 m:ssä eikä cumulonimbus-pilviä

TAF: ESSL 240450Z 2405/2414 25005G12KT CAVOK RMK MIL

Säähavainnot ja -ennusteet yli 4000 lentoasemalta (METAR- ja TAF-raportit).

Käytössä olevat sääasemat on merkitty karttaan keltaisilla ja punaisilla pisteillä.

Aseta hiiri pisteen päälle nähdäksesi sääaseman nimen.

Klikkaa sitten nähdäksesi säähavainnot ja -ennusteet.

Kartan vaihtaminen: klikkaa mustalla rastilla varustettuja vihreitä pisteitä, niin voit zoomata sisään; viivalla varustettua vihreää pistettä, niin voit zoomata ulos tai vihreitä nuolia, niin pääset viereisille kartoille.


METAR-TAF: